createdAt,value
2018-04-28T00:01:59.643Z,5.97
2018-04-28T00:04:25.981Z,5.87
2018-04-28T00:06:52.998Z,6.40
2018-04-28T00:09:19.284Z,7.10
2018-04-28T00:11:45.617Z,6.53
2018-04-28T00:14:11.874Z,6.13
2018-04-28T00:16:54.406Z,5.70
2018-04-28T00:19:24.783Z,5.60
2018-04-28T00:21:51.071Z,6.53
2018-04-28T00:24:19.361Z,6.23
2018-04-28T00:26:48.093Z,6.37
2018-04-28T00:29:14.378Z,6.47
2018-04-28T00:31:57.395Z,6.40
2018-04-28T00:34:25.606Z,6.07
2018-04-28T00:37:00.024Z,6.07
2018-04-28T00:39:26.355Z,4.50
2018-04-28T00:41:52.648Z,5.13
2018-04-28T00:44:18.953Z,5.80
2018-04-28T00:52:42.990Z,5.17
2018-04-28T00:55:21.007Z,5.73
2018-04-28T00:58:06.113Z,5.97
2018-04-28T01:03:55.772Z,5.30
2018-04-28T01:06:22.060Z,4.93
2018-04-28T01:08:48.368Z,5.37
2018-04-28T01:11:17.539Z,5.30
2018-04-28T01:13:44.863Z,4.50
2018-04-28T01:16:11.965Z,5.00
2018-04-28T01:18:50.959Z,3.90
2018-04-28T01:21:17.976Z,4.77
2018-04-28T01:23:47.928Z,4.67
2018-04-28T01:26:27.096Z,4.63
2018-04-28T01:28:56.225Z,4.40
2018-04-28T01:31:22.528Z,4.70
2018-04-28T01:34:03.924Z,4.67
2018-04-28T01:36:30.303Z,4.43
2018-04-28T01:39:13.014Z,4.80
2018-04-28T01:45:21.697Z,4.03
2018-04-28T01:51:03.022Z,4.63
2018-04-28T01:53:30.167Z,3.83
2018-04-28T01:55:57.320Z,3.90
2018-04-28T01:58:26.517Z,4.43
2018-04-28T02:04:04.545Z,5.10
2018-04-28T02:06:43.662Z,4.57
2018-04-28T02:09:10.760Z,4.93
2018-04-28T02:11:41.977Z,5.50
2018-04-28T02:14:28.199Z,4.80
2018-04-28T02:17:02.672Z,5.07
2018-04-28T02:23:01.670Z,5.30
2018-04-28T02:25:45.538Z,4.23
2018-04-28T02:28:17.679Z,5.23
2018-04-28T02:33:48.990Z,5.90
2018-04-28T02:36:17.088Z,5.20
2018-04-28T02:38:43.400Z,4.80
2018-04-28T02:41:17.574Z,5.20
2018-04-28T02:43:55.703Z,4.80
2018-04-28T02:46:24.870Z,4.27
2018-04-28T02:48:58.397Z,5.10
2018-04-28T02:51:49.493Z,6.37
2018-04-28T02:54:48.477Z,4.07
2018-04-28T02:57:16.467Z,5.77
2018-04-28T02:59:46.443Z,5.13
2018-04-28T03:02:22.837Z,4.77
2018-04-28T03:04:58.025Z,4.40
2018-04-28T03:07:41.569Z,4.93
2018-04-28T03:10:13.812Z,5.57
2018-04-28T03:12:40.101Z,5.87
2018-04-28T03:15:06.506Z,6.20
2018-04-28T03:17:38.458Z,4.00
2018-04-28T03:20:17.768Z,5.37
2018-04-28T03:22:46.969Z,5.43
2018-04-28T03:25:13.304Z,5.67
2018-04-28T03:27:55.634Z,5.20
2018-04-28T03:33:33.518Z,4.97
2018-04-28T03:36:13.737Z,4.93
2018-04-28T03:38:40.024Z,4.90
2018-04-28T03:41:24.174Z,5.23
2018-04-28T03:44:11.303Z,6.67
2018-04-28T03:46:43.534Z,6.90
2018-04-28T03:49:25.551Z,5.70
2018-04-28T03:51:55.538Z,5.87
2018-04-28T03:54:25.595Z,6.00
2018-04-28T03:56:52.683Z,6.03
2018-04-28T04:02:52.684Z,6.07
2018-04-28T04:05:19.826Z,5.40
2018-04-28T04:07:49.965Z,5.77
2018-04-28T04:10:28.003Z,6.20
2018-04-28T04:13:06.139Z,5.20
2018-04-28T04:15:42.471Z,5.57
2018-04-28T04:18:15.845Z,6.33
2018-04-28T04:24:17.465Z,6.80
2018-04-28T04:26:54.957Z,4.40
2018-04-28T04:29:33.804Z,4.67
2018-04-28T04:32:09.979Z,5.00
2018-04-28T04:34:52.118Z,5.80
2018-04-28T04:37:25.288Z,5.33
2018-04-28T04:39:55.409Z,5.47
2018-04-28T04:42:23.506Z,5.93
2018-04-28T04:44:53.652Z,5.20
2018-04-28T04:47:33.176Z,5.20
2018-04-28T04:53:17.725Z,4.43
2018-04-28T04:58:48.220Z,4.60
2018-04-28T05:01:31.801Z,4.30
2018-04-28T05:07:10.812Z,4.27
2018-04-28T05:09:40.658Z,4.37
2018-04-28T05:15:44.861Z,3.10
2018-04-28T05:18:29.525Z,3.27
2018-04-28T05:21:06.892Z,2.67
2018-04-28T05:23:38.150Z,2.60
2018-04-28T05:30:13.166Z,2.37
2018-04-28T05:32:52.808Z,2.10
2018-04-28T05:38:51.813Z,2.00
2018-04-28T05:41:31.243Z,1.87
2018-04-28T05:47:32.463Z,2.53
2018-04-28T05:53:19.950Z,2.13
2018-04-28T05:59:05.102Z,2.20
2018-04-28T06:04:59.550Z,1.93
2018-04-28T06:07:34.111Z,2.67
2018-04-28T06:10:07.112Z,2.10
2018-04-28T06:12:56.111Z,2.10
2018-04-28T06:15:34.547Z,2.17
2018-04-28T06:18:25.761Z,1.80
2018-04-28T06:20:52.849Z,1.87
2018-04-28T06:23:19.210Z,2.20
2018-04-28T06:25:45.536Z,1.93
2018-04-28T06:28:11.905Z,1.50
2018-04-28T06:30:38.927Z,2.57
2018-04-28T06:33:05.307Z,1.93
2018-04-28T06:35:31.710Z,1.97
2018-04-28T06:37:57.966Z,2.20
2018-04-28T06:40:24.324Z,1.60
2018-04-28T06:42:50.727Z,2.37
2018-04-28T06:45:17.084Z,1.63
2018-04-28T06:47:43.411Z,1.93
2018-04-28T06:50:09.713Z,1.83
2018-04-28T06:52:36.756Z,1.83
2018-04-28T06:55:03.848Z,2.47
2018-04-28T06:57:30.136Z,1.50
2018-04-28T06:59:56.522Z,1.30
2018-04-28T07:02:22.833Z,2.57
2018-04-28T07:04:49.150Z,1.47
2018-04-28T07:07:15.449Z,1.73
2018-04-28T07:09:41.771Z,1.80
2018-04-28T07:12:08.114Z,2.20
2018-04-28T07:14:35.200Z,1.60
2018-04-28T07:17:01.560Z,1.80
2018-04-28T07:19:27.887Z,1.90
2018-04-28T07:21:54.233Z,1.57
2018-04-28T07:24:20.537Z,1.90
2018-04-28T07:26:46.875Z,1.30
2018-04-28T07:29:13.264Z,1.93
2018-04-28T07:31:39.545Z,1.87
2018-04-28T07:34:05.873Z,1.70
2018-04-28T07:36:32.216Z,1.80
2018-04-28T07:38:58.532Z,1.77
2018-04-28T07:41:24.939Z,1.40
2018-04-28T07:43:51.275Z,1.67
2018-04-28T07:46:17.601Z,1.37
2018-04-28T07:48:43.953Z,1.27
2018-04-28T07:51:10.348Z,1.23
2018-04-28T07:53:36.660Z,1.43
2018-04-28T07:56:03.778Z,1.60
2018-04-28T07:58:31.144Z,1.57
2018-04-28T08:00:57.477Z,1.13
2018-04-28T08:03:23.809Z,1.67
2018-04-28T08:05:50.109Z,2.10
2018-04-28T08:08:16.425Z,2.03
2018-04-28T08:10:42.750Z,1.70
2018-04-28T08:13:09.140Z,1.50
2018-04-28T08:15:36.902Z,1.70
2018-04-28T08:18:03.164Z,1.60
2018-04-28T08:20:30.215Z,1.60
2018-04-28T08:22:56.515Z,1.57
2018-04-28T08:25:22.830Z,2.27
2018-04-28T08:27:49.117Z,1.30
2018-04-28T08:30:15.494Z,2.17
2018-04-28T08:32:41.798Z,1.67
2018-04-28T08:35:08.098Z,1.20
2018-04-28T08:37:35.139Z,1.73
2018-04-28T08:40:02.236Z,1.30
2018-04-28T08:42:28.585Z,1.27
2018-04-28T08:44:54.947Z,1.40
2018-04-28T08:47:22.088Z,1.33
2018-04-28T08:49:49.141Z,2.00
2018-04-28T08:52:16.252Z,1.33
2018-04-28T08:54:42.558Z,1.63
2018-04-28T08:57:08.907Z,1.80
2018-04-28T08:59:54.078Z,1.33
2018-04-28T09:02:20.410Z,1.20
2018-04-28T09:04:46.744Z,1.20
2018-04-28T09:07:39.396Z,2.70
2018-04-28T09:10:05.735Z,1.60
2018-04-28T09:12:32.044Z,1.17
2018-04-28T09:14:58.390Z,1.33
2018-04-28T09:17:24.684Z,1.30
2018-04-28T09:19:50.976Z,1.10
2018-04-28T09:22:17.253Z,1.30
2018-04-28T09:24:43.601Z,1.80
2018-04-28T09:27:09.899Z,1.10
2018-04-28T09:29:36.952Z,1.67
2018-04-28T09:32:03.219Z,1.70
2018-04-28T09:34:29.538Z,1.00
2018-04-28T09:36:55.841Z,1.43
2018-04-28T09:39:22.896Z,1.40
2018-04-28T09:41:49.217Z,1.30
2018-04-28T09:44:16.234Z,1.30
2018-04-28T09:46:42.601Z,1.23
2018-04-28T09:49:09.643Z,1.33
2018-04-28T09:51:36.728Z,1.23
2018-04-28T09:54:03.051Z,0.90
2018-04-28T09:56:29.370Z,1.20
2018-04-28T09:58:55.753Z,1.30
2018-04-28T10:01:22.014Z,1.30
2018-04-28T10:03:53.897Z,1.20
2018-04-28T10:06:20.218Z,1.00
2018-04-28T10:08:46.498Z,1.10
2018-04-28T10:11:12.797Z,1.30
2018-04-28T10:13:39.157Z,1.00
2018-04-28T10:16:05.425Z,1.30
2018-04-28T10:18:32.498Z,1.20
2018-04-28T10:20:58.786Z,1.03
2018-04-28T10:23:25.128Z,1.40
2018-04-28T10:25:51.465Z,1.00
2018-04-28T10:28:18.545Z,1.20
2018-04-28T10:30:44.885Z,1.33
2018-04-28T10:33:11.197Z,1.30
2018-04-28T10:35:37.536Z,1.50
2018-04-28T10:38:03.868Z,1.00
2018-04-28T10:40:30.194Z,1.10
2018-04-28T10:42:56.529Z,1.40
2018-04-28T10:45:22.864Z,1.10
2018-04-28T10:47:49.227Z,1.50
2018-04-28T10:50:15.541Z,1.37
2018-04-28T10:52:41.816Z,1.00
2018-04-28T10:55:08.150Z,1.17
2018-04-28T10:57:34.426Z,1.20
2018-04-28T11:00:00.795Z,1.43
2018-04-28T11:02:27.874Z,1.23
2018-04-28T11:04:54.936Z,1.00
2018-04-28T11:07:21.233Z,1.00
2018-04-28T11:09:47.505Z,1.50
2018-04-28T11:12:13.835Z,1.50
2018-04-28T11:14:40.129Z,1.60
2018-04-28T11:17:06.606Z,1.30
2018-04-28T11:19:32.891Z,1.20
2018-04-28T11:21:59.158Z,2.23
2018-04-28T11:24:25.516Z,1.33
2018-04-28T11:26:51.810Z,1.40
2018-04-28T11:29:18.125Z,1.10
2018-04-28T11:31:45.161Z,1.53
2018-04-28T11:34:12.209Z,1.20
2018-04-28T11:36:38.483Z,1.00
2018-04-28T11:39:04.810Z,1.50
2018-04-28T11:41:31.069Z,1.23
2018-04-28T11:43:57.368Z,1.10
2018-04-28T11:46:23.702Z,1.53
2018-04-28T11:48:49.957Z,1.63
2018-04-28T11:51:16.235Z,1.80
2018-04-28T11:53:43.291Z,1.50
2018-04-28T11:56:10.354Z,1.60
2018-04-28T11:58:36.675Z,2.20
2018-04-28T12:01:03.031Z,1.37
2018-04-28T12:03:29.405Z,1.30
2018-04-28T12:05:55.741Z,1.33
2018-04-28T12:08:22.135Z,1.90
2018-04-28T12:10:48.429Z,1.00
2018-04-28T12:13:15.470Z,1.60
2018-04-28T12:15:42.522Z,1.37
2018-04-28T12:18:09.568Z,1.27
2018-04-28T12:20:36.617Z,1.43
2018-04-28T12:23:03.702Z,1.00
2018-04-28T12:25:30.197Z,2.20
2018-04-28T12:27:57.211Z,1.97
2018-04-28T12:30:23.575Z,1.03
2018-04-28T12:32:50.594Z,1.60
2018-04-28T12:35:16.900Z,1.20
2018-04-28T12:37:43.185Z,1.50
2018-04-28T12:40:10.249Z,1.43
2018-04-28T12:42:36.608Z,2.10
2018-04-28T12:45:02.999Z,1.47
2018-04-28T12:47:30.027Z,1.60
2018-04-28T12:49:56.373Z,1.70
2018-04-28T12:52:23.414Z,1.70
2018-04-28T12:54:49.744Z,2.23
2018-04-28T12:57:16.048Z,1.50
2018-04-28T12:59:42.343Z,1.77
2018-04-28T13:02:08.634Z,1.57
2018-04-28T13:04:34.947Z,2.00
2018-04-28T13:07:01.245Z,1.20
2018-04-28T13:09:27.738Z,1.63
2018-04-28T13:11:54.776Z,1.20
2018-04-28T13:14:21.444Z,1.30
2018-04-28T13:16:47.746Z,1.30
2018-04-28T13:19:14.796Z,1.40
2018-04-28T13:21:41.833Z,1.30
2018-04-28T13:24:08.151Z,1.70
2018-04-28T13:26:34.444Z,1.87
2018-04-28T13:29:00.719Z,1.60
2018-04-28T13:31:27.033Z,1.53
2018-04-28T13:33:53.339Z,1.40
2018-04-28T13:36:19.625Z,1.77
2018-04-28T13:38:45.999Z,1.57
2018-04-28T13:41:12.327Z,1.33
2018-04-28T13:43:39.372Z,1.27
2018-04-28T13:46:05.729Z,2.17
2018-04-28T13:48:32.064Z,1.80
2018-04-28T13:50:58.566Z,1.83
2018-04-28T13:53:24.937Z,1.60
2018-04-28T13:55:51.207Z,1.40
2018-04-28T13:58:18.246Z,1.50
2018-04-28T14:00:44.542Z,2.00
2018-04-28T14:03:10.857Z,1.80
2018-04-28T14:05:37.154Z,1.43
2018-04-28T14:08:03.451Z,1.60
2018-04-28T14:10:29.766Z,1.90
2018-04-28T14:12:56.141Z,1.50
2018-04-28T14:15:22.510Z,1.10
2018-04-28T14:17:48.824Z,1.47
2018-04-28T14:20:15.254Z,1.60
2018-04-28T14:22:41.571Z,1.53
2018-04-28T14:25:08.672Z,2.43
2018-04-28T14:27:35.006Z,1.80
2018-04-28T14:30:01.374Z,1.60
2018-04-28T14:32:28.134Z,1.60
2018-04-28T14:34:54.509Z,1.70
2018-04-28T14:37:20.858Z,1.97
2018-04-28T14:39:47.204Z,1.63
2018-04-28T14:42:13.551Z,1.63
2018-04-28T14:44:39.832Z,1.90
2018-04-28T14:47:06.934Z,1.43
2018-04-28T14:49:33.952Z,1.70
2018-04-28T14:52:00.255Z,1.23
2018-04-28T14:54:26.530Z,1.53
2018-04-28T14:56:53.546Z,1.27
2018-04-28T14:59:19.803Z,1.47
2018-04-28T15:01:46.065Z,2.17
2018-04-28T15:04:12.348Z,1.87
2018-04-28T15:06:39.540Z,2.50
2018-04-28T15:09:05.902Z,2.27
2018-04-28T15:11:32.282Z,2.20
2018-04-28T15:13:58.611Z,1.83
2018-04-28T15:16:25.762Z,2.47
2018-04-28T15:18:52.119Z,2.10
2018-04-28T15:21:18.474Z,2.13
2018-04-28T15:23:44.839Z,2.07
2018-04-28T15:26:11.152Z,1.90
2018-04-28T15:28:37.492Z,2.13
2018-04-28T15:31:04.614Z,1.50
2018-04-28T15:33:30.943Z,1.50
2018-04-28T15:35:57.190Z,2.40
2018-04-28T15:38:23.517Z,2.03
2018-04-28T15:40:49.818Z,1.90
2018-04-28T15:43:16.130Z,1.77
2018-04-28T15:45:42.474Z,2.10
2018-04-28T15:48:08.777Z,2.33
2018-04-28T15:50:35.160Z,2.00
2018-04-28T15:53:01.505Z,2.43
2018-04-28T15:55:27.798Z,2.60
2018-04-28T15:57:54.100Z,2.23
2018-04-28T16:00:21.332Z,2.80
2018-04-28T16:02:47.648Z,2.70
2018-04-28T16:05:14.007Z,1.63
2018-04-28T16:07:40.297Z,2.40
2018-04-28T16:10:06.595Z,2.00
2018-04-28T16:12:33.595Z,1.90
2018-04-28T16:14:59.910Z,2.90
2018-04-28T16:17:26.251Z,2.10
2018-04-28T16:19:52.562Z,2.03
2018-04-28T16:22:18.836Z,2.20
2018-04-28T16:24:45.565Z,2.00
2018-04-28T16:27:11.901Z,2.00
2018-04-28T16:29:38.371Z,2.20
2018-04-28T16:32:05.427Z,2.47
2018-04-28T16:34:31.751Z,2.83
2018-04-28T16:36:58.954Z,2.67
2018-04-28T16:39:25.311Z,3.10
2018-04-28T16:41:51.602Z,2.57
2018-04-28T16:44:17.838Z,2.50
2018-04-28T16:46:44.151Z,2.87
2018-04-28T16:49:10.763Z,3.50
2018-04-28T16:51:37.837Z,3.10
2018-04-28T16:54:04.108Z,3.43
2018-04-28T16:56:30.418Z,2.67
2018-04-28T16:58:56.763Z,2.43
2018-04-28T17:01:24.056Z,3.27
2018-04-28T17:03:51.098Z,2.07
2018-04-28T17:06:18.995Z,4.43
2018-04-28T17:08:45.289Z,3.90
2018-04-28T17:11:11.595Z,2.40
2018-04-28T17:13:38.203Z,2.30
2018-04-28T17:16:04.629Z,2.60
2018-04-28T17:18:31.101Z,3.20
2018-04-28T17:20:57.406Z,2.53
2018-04-28T17:23:23.788Z,2.73
2018-04-28T17:25:50.063Z,2.90
2018-04-28T17:28:16.412Z,3.03
2018-04-28T17:30:42.709Z,2.90
2018-04-28T17:33:09.041Z,2.13
2018-04-28T17:35:35.338Z,3.40
2018-04-28T17:38:01.622Z,3.40
2018-04-28T17:40:27.940Z,3.63
2018-04-28T17:42:54.894Z,4.30
2018-04-28T17:45:21.207Z,3.53
2018-04-28T17:47:47.531Z,3.30
2018-04-28T17:50:14.551Z,4.00
2018-04-28T17:52:40.839Z,3.83
2018-04-28T17:55:07.148Z,4.63
2018-04-28T17:57:33.438Z,8.00
2018-04-28T17:59:59.910Z,7.10
2018-04-28T18:02:26.247Z,8.53
2018-04-28T18:04:52.911Z,5.40
2018-04-28T18:07:19.359Z,5.73
2018-04-28T18:09:46.457Z,5.50
2018-04-28T18:12:13.467Z,7.00
2018-04-28T18:14:39.920Z,7.40
2018-04-28T18:17:06.272Z,5.90
2018-04-28T18:19:33.378Z,6.60
2018-04-28T18:21:59.711Z,7.27
2018-04-28T18:24:26.039Z,7.00
2018-04-28T18:26:52.339Z,9.13
2018-04-28T18:29:18.643Z,9.50
2018-04-28T18:31:45.656Z,7.57
2018-04-28T18:34:11.966Z,6.77
2018-04-28T18:36:38.346Z,8.20
2018-04-28T18:39:05.664Z,7.73
2018-04-28T18:41:31.956Z,9.33
2018-04-28T18:43:58.275Z,9.50
2018-04-28T18:46:24.692Z,6.77
2018-04-28T18:48:50.963Z,7.37
2018-04-28T18:51:17.308Z,6.53
2018-04-28T18:53:44.354Z,9.83
2018-04-28T18:56:10.734Z,10.07
2018-04-28T18:58:37.775Z,7.33
2018-04-28T19:01:04.099Z,7.80
2018-04-28T19:03:30.554Z,6.30
2018-04-28T19:05:57.632Z,7.20
2018-04-28T19:08:23.965Z,6.53
2018-04-28T19:10:50.291Z,7.47
2018-04-28T19:13:16.642Z,6.27
2018-04-28T19:15:43.122Z,7.13
2018-04-28T19:18:09.490Z,7.67
2018-04-28T19:20:35.876Z,14.20
2018-04-28T19:23:02.333Z,9.50
2018-04-28T19:25:29.389Z,8.67
2018-04-28T19:27:55.704Z,11.00
2018-04-28T19:30:22.909Z,11.10
2018-04-28T19:32:49.252Z,15.40
2018-04-28T19:35:15.560Z,20.37
2018-04-28T19:37:41.873Z,21.20
2018-04-28T19:40:08.312Z,20.60
2018-04-28T19:42:34.626Z,20.70
2018-04-28T19:45:02.794Z,21.50
2018-04-28T19:47:29.141Z,15.53
2018-04-28T19:49:55.510Z,14.77
2018-04-28T19:52:21.890Z,11.90
2018-04-28T19:54:48.977Z,11.93
2018-04-28T19:57:15.299Z,10.77
2018-04-28T19:59:41.656Z,6.80
2018-04-28T20:02:07.967Z,9.57
2018-04-28T20:04:34.281Z,9.30
2018-04-28T20:07:00.633Z,14.27
2018-04-28T20:09:27.058Z,8.70
2018-04-28T20:11:53.364Z,6.80
2018-04-28T20:14:19.720Z,7.37
2018-04-28T20:16:46.097Z,11.43
2018-04-28T20:19:12.517Z,10.10
2018-04-28T20:21:38.871Z,11.50
2018-04-28T20:24:23.843Z,13.47
2018-04-28T20:26:50.986Z,11.87
2018-04-28T20:29:17.275Z,8.67
2018-04-28T20:31:43.571Z,10.30
2018-04-28T20:34:10.632Z,10.37
2018-04-28T20:36:36.994Z,11.37
2018-04-28T20:39:03.314Z,13.63
2018-04-28T20:41:29.650Z,11.50
2018-04-28T20:43:55.934Z,12.37
2018-04-28T20:46:22.982Z,11.70
2018-04-28T20:48:50.055Z,11.10
2018-04-28T20:51:16.416Z,10.30
2018-04-28T20:53:42.696Z,11.83
2018-04-28T20:56:09.833Z,11.00
2018-04-28T20:58:36.116Z,10.33
2018-04-28T21:01:02.865Z,10.00
2018-04-28T21:03:29.881Z,10.57
2018-04-28T21:05:56.172Z,10.50
2018-04-28T21:08:22.607Z,11.50
2018-04-28T21:10:48.891Z,10.77
2018-04-28T21:13:15.163Z,10.77
2018-04-28T21:15:41.557Z,11.23
2018-04-28T21:18:07.859Z,10.43
2018-04-28T21:20:34.879Z,10.73
2018-04-28T21:23:01.262Z,10.10
2018-04-28T21:25:27.797Z,8.77
2018-04-28T21:27:54.099Z,8.60
2018-04-28T21:30:21.120Z,9.10
2018-04-28T21:32:47.368Z,9.47
2018-04-28T21:35:14.430Z,9.23
2018-04-28T21:37:41.584Z,9.87
2018-04-28T21:40:07.870Z,10.00
2018-04-28T21:42:34.177Z,10.83
2018-04-28T21:45:00.495Z,11.87
2018-04-28T21:47:27.557Z,11.00
2018-04-28T21:49:53.887Z,10.60
2018-04-28T21:52:20.216Z,10.93
2018-04-28T21:54:46.505Z,9.27
2018-04-28T21:57:13.522Z,10.13
2018-04-28T21:59:39.868Z,10.07
2018-04-28T22:02:06.189Z,10.40
2018-04-28T22:04:32.507Z,11.70
2018-04-28T22:06:59.524Z,11.53
2018-04-28T22:09:25.838Z,11.70
2018-04-28T22:11:52.181Z,13.03
2018-04-28T22:14:18.458Z,11.27
2018-04-28T22:16:44.791Z,10.27
2018-04-28T22:19:12.052Z,10.30
2018-04-28T22:21:38.397Z,10.53
2018-04-28T22:24:05.437Z,10.63
2018-04-28T22:26:31.744Z,11.60
2018-04-28T22:28:58.027Z,10.37
2018-04-28T22:31:24.338Z,11.00
2018-04-28T22:33:51.368Z,9.50
2018-04-28T22:36:17.674Z,10.80
2018-04-28T22:38:43.958Z,10.83
2018-04-28T22:41:10.246Z,9.50
2018-04-28T22:43:36.515Z,9.90
2018-04-28T22:46:03.613Z,10.03
2018-04-28T22:48:29.895Z,9.87
2018-04-28T22:50:56.902Z,10.70
2018-04-28T22:53:23.189Z,10.37
2018-04-28T22:55:49.505Z,9.70
2018-04-28T22:58:16.517Z,10.07
2018-04-28T23:00:42.839Z,9.90
2018-04-28T23:03:09.169Z,10.47
2018-04-28T23:05:35.473Z,11.07
2018-04-28T23:08:01.773Z,10.73
2018-04-28T23:10:28.830Z,10.30
2018-04-28T23:12:55.114Z,10.47
2018-04-28T23:15:22.131Z,10.60
2018-04-28T23:17:48.444Z,10.60
2018-04-28T23:20:14.731Z,9.90
2018-04-28T23:22:41.060Z,11.10
2018-04-28T23:25:07.327Z,10.47
2018-04-28T23:27:33.667Z,10.00
2018-04-28T23:29:59.958Z,9.93
2018-04-28T23:32:26.306Z,10.50
2018-04-28T23:34:53.354Z,10.60
2018-04-28T23:37:20.382Z,11.20
2018-04-28T23:39:46.639Z,13.93
2018-04-28T23:42:12.919Z,10.63
2018-04-28T23:44:39.203Z,11.07
2018-04-28T23:47:05.485Z,10.20
2018-04-28T23:49:31.816Z,11.63
2018-04-28T23:51:58.129Z,10.97
2018-04-28T23:54:24.450Z,11.37
2018-04-28T23:56:50.789Z,12.40
2018-04-28T23:59:17.128Z,11.30
